Noatak Airport
PAWN : now visible

Aeroporto :











RITROVATECI SU...

 
LOGIN :

Iscrizione | Disclaimer

   EN    FR    IT 

 









Sommario :    VFR   VFR Marginale   IFR   IFR Intensivo   IFR Molto Intensivo
Visibilità : 
Base nubi : 
>= 8 km
>= 3000ft
5 / 8 km
1000 / 3000 ft
1500m / 5 km
500 / 1000 ft
800 / 1500m
200 / 500 ft
< 800m
< 200 ft
Simboli :   Temporali  Nebbia  Neve Forte  Precipitazioni Forti  Vento > 20 kt






- Altitudine del aeroporto : 88 ft
- Codice IATA : WTK


PAWN - Noatak

ULTIMO METAR :
  • 011856Z AUTO 00000KT 9SM BKN100 18/05 A2960 RMK AO2 SLP033 T01830050

METARs OBSOLETI :
  • 011756Z AUTO 07005KT 10SM FEW100 16/06 A2960 RMK AO2 SLP033 T01610061 10167 20094 53004
  • 011656Z AUTO 02003KT 10SM BKN120 14/05 A2960 RMK AO2 SLP033 T01390050

TAF N/A
FIR PAZA / America del Nord



MetMap, La meteo Aeronautica in un colpo d'occhio ! - Copyright ORBIFLY Dicembre 2007 - Disclaimer

ORBIFLY MET'MAP TEAM :

Programmazione e sviluppo : Alexandra Zaïnal
Concezione : Baudouin d'Aumeries
Aiuto per la programmazione : Marc-Olivier Méhu
Supporto tecnico e logistico : Manuel Goepfert
Aiuto per la traduzione : Arnaldo La Scala

Contatto : metmap@orbifly.com




FONTI E CREDITI :

   NOAA       Earth
Advisory